createdAt,value
2022-12-31T00:02:05.297Z,71.80
2022-12-31T00:04:35.756Z,71.93
2022-12-31T00:07:06.057Z,71.99
2022-12-31T00:09:36.334Z,71.67
2022-12-31T00:12:07.144Z,71.90
2022-12-31T00:14:37.311Z,71.97
2022-12-31T00:17:07.699Z,72.13
2022-12-31T00:19:37.899Z,71.99
2022-12-31T00:22:08.107Z,71.78
2022-12-31T00:24:38.337Z,72.08
2022-12-31T00:27:08.534Z,71.91
2022-12-31T00:29:38.681Z,71.83
2022-12-31T00:32:08.861Z,71.83
2022-12-31T00:34:39.022Z,71.85
2022-12-31T00:37:09.213Z,71.68
2022-12-31T00:39:39.353Z,71.88
2022-12-31T00:42:09.574Z,71.85
2022-12-31T00:44:39.814Z,71.81
2022-12-31T00:47:10.020Z,71.95
2022-12-31T00:49:40.288Z,71.80
2022-12-31T00:52:13.929Z,71.96
2022-12-31T00:54:44.417Z,71.99
2022-12-31T00:57:14.630Z,71.75
2022-12-31T00:59:44.799Z,71.91
2022-12-31T01:02:15.170Z,72.00
2022-12-31T01:04:45.583Z,71.93
2022-12-31T01:07:15.800Z,71.79
2022-12-31T01:09:46.028Z,71.99
2022-12-31T01:12:16.249Z,71.96
2022-12-31T01:14:46.510Z,72.08
2022-12-31T01:17:17.406Z,71.88
2022-12-31T01:19:47.624Z,72.01
2022-12-31T01:22:17.855Z,71.92
2022-12-31T01:28:29.001Z,71.75
2022-12-31T01:30:59.930Z,71.53
2022-12-31T01:33:30.175Z,71.73
2022-12-31T01:36:05.394Z,71.74
2022-12-31T01:38:36.427Z,71.86
2022-12-31T01:41:07.783Z,71.79
2022-12-31T01:43:51.593Z,71.48
2022-12-31T01:46:47.841Z,71.35
2022-12-31T01:49:35.533Z,71.52
2022-12-31T01:52:18.280Z,71.24
2022-12-31T01:54:55.504Z,71.40
2022-12-31T01:57:26.855Z,71.80
2022-12-31T01:59:58.442Z,71.67
2022-12-31T02:02:28.830Z,71.81
2022-12-31T02:05:03.072Z,71.52
2022-12-31T02:07:33.290Z,71.64
2022-12-31T02:10:03.599Z,71.38
2022-12-31T02:12:33.769Z,71.66
2022-12-31T02:15:04.283Z,71.58
2022-12-31T02:17:39.210Z,71.56
2022-12-31T02:20:24.591Z,71.05
2022-12-31T02:23:16.407Z,70.99
2022-12-31T02:26:05.004Z,71.22
2022-12-31T02:29:12.356Z,71.11
2022-12-31T02:31:46.386Z,71.47
2022-12-31T02:34:27.612Z,71.12
2022-12-31T02:37:00.047Z,71.24
2022-12-31T02:39:30.989Z,71.36
2022-12-31T02:42:02.054Z,71.47
2022-12-31T02:44:37.492Z,71.52
2022-12-31T02:47:18.656Z,71.18
2022-12-31T02:50:06.662Z,71.29
2022-12-31T02:52:51.358Z,71.17
2022-12-31T02:55:33.773Z,71.37
2022-12-31T02:58:12.749Z,71.42
2022-12-31T03:01:10.699Z,71.02
2022-12-31T03:03:41.763Z,71.35
2022-12-31T03:06:13.435Z,70.95
2022-12-31T03:09:10.000Z,71.00
2022-12-31T03:11:58.922Z,70.55
2022-12-31T03:14:29.046Z,71.22
2022-12-31T03:16:59.296Z,70.97
2022-12-31T03:19:47.851Z,71.20
2022-12-31T03:22:30.030Z,71.28
2022-12-31T03:25:22.147Z,71.23
2022-12-31T03:27:52.881Z,71.08
2022-12-31T03:30:24.457Z,71.33
2022-12-31T03:32:56.691Z,71.29
2022-12-31T03:35:28.865Z,71.27
2022-12-31T03:37:59.519Z,71.30
2022-12-31T03:40:31.728Z,71.37
2022-12-31T03:43:01.893Z,71.33
2022-12-31T03:45:32.108Z,71.39
2022-12-31T03:48:05.310Z,71.55
2022-12-31T03:50:36.216Z,71.63
2022-12-31T03:53:06.380Z,71.39
2022-12-31T03:55:36.852Z,71.47
2022-12-31T03:58:07.065Z,71.60
2022-12-31T04:00:37.268Z,71.72
2022-12-31T04:03:07.537Z,72.26
2022-12-31T04:05:37.774Z,72.31
2022-12-31T04:08:07.997Z,72.56
2022-12-31T04:10:38.136Z,72.55
2022-12-31T04:13:08.255Z,72.71
2022-12-31T04:15:38.315Z,72.69
2022-12-31T04:18:08.491Z,72.83
2022-12-31T04:20:38.706Z,72.79
2022-12-31T04:23:08.823Z,72.54
2022-12-31T04:25:38.886Z,72.71
2022-12-31T04:28:09.035Z,72.98
2022-12-31T04:30:40.123Z,72.92
2022-12-31T04:33:10.198Z,72.98
2022-12-31T04:35:40.358Z,72.73
2022-12-31T04:38:10.574Z,73.27
2022-12-31T04:41:00.606Z,73.39
2022-12-31T04:43:30.733Z,73.54
2022-12-31T04:46:00.985Z,73.54
2022-12-31T04:48:31.233Z,73.77
2022-12-31T04:51:01.912Z,74.04
2022-12-31T04:53:32.078Z,74.06
2022-12-31T04:56:02.856Z,74.30
2022-12-31T04:58:33.808Z,74.35
2022-12-31T05:01:04.950Z,74.55
2022-12-31T05:03:36.282Z,74.94
2022-12-31T05:06:15.644Z,75.60
2022-12-31T05:08:46.196Z,75.45
2022-12-31T05:11:17.871Z,75.76
2022-12-31T05:13:47.954Z,75.69
2022-12-31T05:16:18.227Z,76.10
2022-12-31T05:18:48.392Z,76.12
2022-12-31T05:21:21.714Z,76.28
2022-12-31T05:23:51.892Z,76.10
2022-12-31T05:26:22.047Z,76.37
2022-12-31T05:28:52.175Z,76.50
2022-12-31T05:31:22.905Z,76.61
2022-12-31T05:33:53.674Z,76.85
2022-12-31T05:36:23.836Z,76.72
2022-12-31T05:38:53.995Z,77.15
2022-12-31T05:41:24.178Z,77.04
2022-12-31T05:43:54.356Z,77.04
2022-12-31T05:46:24.553Z,77.21
2022-12-31T05:48:54.666Z,77.05
2022-12-31T05:51:24.804Z,77.17
2022-12-31T05:53:54.880Z,77.28
2022-12-31T05:56:25.014Z,77.46
2022-12-31T05:58:55.175Z,77.26
2022-12-31T06:01:25.503Z,77.40
2022-12-31T06:03:55.721Z,77.51
2022-12-31T06:06:25.939Z,77.64
2022-12-31T06:08:56.109Z,77.22
2022-12-31T06:11:26.288Z,77.56
2022-12-31T06:13:56.544Z,77.41
2022-12-31T06:16:27.444Z,77.44
2022-12-31T06:18:57.661Z,77.50
2022-12-31T06:21:27.797Z,77.62
2022-12-31T06:23:59.092Z,77.73
2022-12-31T06:26:29.330Z,77.29
2022-12-31T06:28:59.396Z,77.54
2022-12-31T06:31:29.637Z,77.38
2022-12-31T06:33:59.773Z,77.54
2022-12-31T06:36:30.174Z,77.66
2022-12-31T06:39:01.540Z,77.36
2022-12-31T06:41:31.959Z,77.63
2022-12-31T06:44:02.140Z,77.45
2022-12-31T06:46:32.456Z,77.83
2022-12-31T06:49:02.753Z,77.29
2022-12-31T06:51:33.034Z,77.42
2022-12-31T06:54:03.234Z,77.47
2022-12-31T06:56:34.949Z,77.41
2022-12-31T06:59:05.639Z,77.02
2022-12-31T07:01:57.960Z,77.61
2022-12-31T07:04:36.794Z,77.07
2022-12-31T07:07:51.214Z,77.36
2022-12-31T07:10:29.252Z,77.03
2022-12-31T07:13:32.576Z,77.55
2022-12-31T07:16:02.766Z,77.01
2022-12-31T07:18:35.927Z,76.93
2022-12-31T07:21:14.791Z,76.98
2022-12-31T07:23:45.301Z,77.08
2022-12-31T07:27:00.047Z,77.37
2022-12-31T07:30:05.167Z,77.38
2022-12-31T07:32:51.254Z,77.04
2022-12-31T07:35:57.037Z,77.02
2022-12-31T07:38:35.977Z,76.89
2022-12-31T07:41:22.071Z,76.89
2022-12-31T07:44:05.735Z,77.07
2022-12-31T07:46:59.201Z,76.97
2022-12-31T07:49:31.288Z,77.15
2022-12-31T07:52:01.834Z,77.23
2022-12-31T07:54:32.029Z,77.24
2022-12-31T07:57:02.305Z,76.98
2022-12-31T07:59:45.667Z,77.53
2022-12-31T08:02:34.177Z,77.39
2022-12-31T08:05:34.247Z,77.32
2022-12-31T08:08:14.614Z,77.16
2022-12-31T08:11:06.550Z,77.92
2022-12-31T08:13:37.477Z,76.89
2022-12-31T08:16:11.578Z,77.78
2022-12-31T08:18:42.221Z,77.26
2022-12-31T08:21:32.711Z,77.62
2022-12-31T08:24:07.897Z,77.30
2022-12-31T08:26:52.810Z,77.71
2022-12-31T08:29:40.178Z,77.63
2022-12-31T08:32:23.937Z,78.36
2022-12-31T08:35:24.804Z,78.41
2022-12-31T08:38:25.389Z,77.99
2022-12-31T08:41:04.667Z,78.57
2022-12-31T08:43:55.952Z,78.92
2022-12-31T08:46:40.824Z,78.70
2022-12-31T08:49:11.604Z,78.26
2022-12-31T08:51:42.410Z,78.20
2022-12-31T08:54:13.516Z,78.51
2022-12-31T08:56:52.129Z,78.33
2022-12-31T08:59:38.438Z,78.19
2022-12-31T09:02:22.952Z,78.42
2022-12-31T09:04:55.980Z,78.09
2022-12-31T09:07:39.880Z,77.90
2022-12-31T09:10:28.669Z,78.19
2022-12-31T09:13:34.059Z,78.85
2022-12-31T09:16:20.805Z,78.36
2022-12-31T09:18:51.121Z,78.65
2022-12-31T09:21:21.541Z,78.96
2022-12-31T09:23:51.925Z,79.28
2022-12-31T09:26:48.521Z,80.48
2022-12-31T09:29:30.840Z,79.67
2022-12-31T09:32:27.858Z,79.93
2022-12-31T09:35:16.605Z,79.79
2022-12-31T09:37:51.665Z,80.29
2022-12-31T09:40:55.485Z,80.71
2022-12-31T09:43:46.841Z,80.66
2022-12-31T09:46:41.960Z,81.27
2022-12-31T09:49:47.727Z,81.91
2022-12-31T09:52:32.847Z,80.62
2022-12-31T09:55:24.301Z,80.82
2022-12-31T09:58:12.424Z,81.33
2022-12-31T10:01:30.303Z,82.48
2022-12-31T10:04:28.941Z,81.62
2022-12-31T10:07:05.113Z,81.47
2022-12-31T10:09:47.511Z,82.26
2022-12-31T10:12:38.826Z,82.56
2022-12-31T10:15:35.931Z,82.86
2022-12-31T10:18:29.411Z,82.81
2022-12-31T10:21:20.825Z,82.05
2022-12-31T10:24:09.402Z,82.79
2022-12-31T10:27:05.986Z,82.24
2022-12-31T10:29:47.987Z,84.10
2022-12-31T10:32:48.322Z,82.68
2022-12-31T10:35:27.742Z,82.25
2022-12-31T10:38:42.786Z,83.43
2022-12-31T10:41:31.165Z,82.75
2022-12-31T10:44:19.210Z,82.58
2022-12-31T10:47:10.891Z,83.56
2022-12-31T10:49:41.026Z,82.68
2022-12-31T10:52:48.693Z,84.53
2022-12-31T10:55:24.387Z,83.43
2022-12-31T10:58:16.332Z,84.80
2022-12-31T11:01:05.094Z,85.71
2022-12-31T11:04:12.780Z,85.21
2022-12-31T11:07:24.478Z,86.09
2022-12-31T11:10:09.808Z,84.80
2022-12-31T11:13:01.449Z,85.26
2022-12-31T11:15:34.732Z,85.18
2022-12-31T11:18:31.353Z,86.09
2022-12-31T11:21:28.200Z,86.05
2022-12-31T11:24:10.118Z,86.11
2022-12-31T11:27:11.699Z,86.63
2022-12-31T11:30:07.160Z,86.58
2022-12-31T11:32:46.599Z,86.37
2022-12-31T11:35:30.325Z,86.98
2022-12-31T11:38:09.480Z,86.79
2022-12-31T11:41:33.534Z,88.34
2022-12-31T11:44:25.125Z,88.01
2022-12-31T11:47:04.196Z,87.52
2022-12-31T11:49:41.541Z,87.29
2022-12-31T11:52:21.839Z,87.92
2022-12-31T11:54:58.124Z,87.28
2022-12-31T11:57:34.976Z,88.21
2022-12-31T12:00:18.500Z,91.42
2022-12-31T12:02:58.927Z,88.39
2022-12-31T12:05:29.902Z,87.96
2022-12-31T12:08:00.138Z,87.91
2022-12-31T12:10:37.612Z,89.09
2022-12-31T12:13:21.963Z,88.70
2022-12-31T12:15:56.679Z,87.94
2022-12-31T12:18:49.818Z,89.21
2022-12-31T12:21:27.487Z,88.62
2022-12-31T12:24:04.755Z,87.97
2022-12-31T12:26:40.049Z,88.21
2022-12-31T12:29:14.730Z,88.55
2022-12-31T12:31:56.831Z,89.09
2022-12-31T12:34:29.019Z,88.56
2022-12-31T12:37:00.652Z,88.35
2022-12-31T12:39:33.232Z,88.53
2022-12-31T12:42:07.641Z,88.42
2022-12-31T12:44:38.213Z,88.28
2022-12-31T12:47:17.633Z,88.57
2022-12-31T12:49:49.987Z,88.65
2022-12-31T12:52:41.741Z,89.88
2022-12-31T12:55:30.187Z,88.18
2022-12-31T12:58:06.280Z,88.70
2022-12-31T13:00:57.381Z,88.89
2022-12-31T13:03:36.436Z,88.96
2022-12-31T13:06:23.694Z,89.34
2022-12-31T13:09:19.211Z,90.62
2022-12-31T13:12:02.427Z,89.86
2022-12-31T13:15:19.435Z,90.32
2022-12-31T13:18:31.639Z,90.74
2022-12-31T13:21:27.719Z,90.74
2022-12-31T13:24:11.887Z,90.14
2022-12-31T13:27:02.511Z,89.94
2022-12-31T13:29:35.238Z,89.24
2022-12-31T13:32:09.001Z,89.47
2022-12-31T13:34:44.405Z,89.84
2022-12-31T13:37:32.071Z,89.97
2022-12-31T13:40:18.025Z,90.18
2022-12-31T13:43:03.449Z,90.13
2022-12-31T13:45:39.578Z,89.93
2022-12-31T13:48:37.687Z,91.15
2022-12-31T13:51:19.115Z,90.45
2022-12-31T13:53:55.470Z,89.38
2022-12-31T13:56:29.771Z,89.60
2022-12-31T13:59:39.762Z,91.04
2022-12-31T14:02:37.213Z,91.45
2022-12-31T14:05:19.562Z,90.31
2022-12-31T14:07:56.118Z,90.17
2022-12-31T14:10:51.951Z,90.79
2022-12-31T14:13:51.175Z,90.07
2022-12-31T14:17:02.852Z,89.91
2022-12-31T14:19:42.106Z,90.52
2022-12-31T14:22:34.574Z,89.92
2022-12-31T14:25:17.373Z,89.25
2022-12-31T14:27:48.973Z,89.74
2022-12-31T14:30:26.165Z,89.66
2022-12-31T14:33:09.819Z,90.48
2022-12-31T14:36:09.977Z,89.74
2022-12-31T14:38:55.395Z,89.65
2022-12-31T14:41:55.249Z,89.81
2022-12-31T14:44:42.571Z,90.09
2022-12-31T14:47:33.203Z,90.05
2022-12-31T14:50:15.395Z,89.34
2022-12-31T14:52:55.187Z,89.26
2022-12-31T14:55:30.998Z,89.73
2022-12-31T15:00:58.463Z,89.45
2022-12-31T15:03:31.498Z,89.45
2022-12-31T15:06:24.239Z,89.65
2022-12-31T15:09:15.419Z,89.49
2022-12-31T15:12:11.358Z,89.23
2022-12-31T15:14:53.725Z,89.34
2022-12-31T15:17:39.401Z,89.53
2022-12-31T15:20:33.879Z,89.71
2022-12-31T15:23:14.670Z,89.26
2022-12-31T15:25:49.784Z,89.12
2022-12-31T15:28:40.157Z,90.32
2022-12-31T15:31:18.187Z,89.45
2022-12-31T15:34:24.126Z,90.15
2022-12-31T15:36:57.634Z,89.16
2022-12-31T15:39:44.744Z,89.61
2022-12-31T15:42:38.740Z,89.66
2022-12-31T15:45:24.791Z,89.12
2022-12-31T15:47:59.417Z,88.95
2022-12-31T15:50:30.314Z,89.29
2022-12-31T15:53:03.797Z,88.85
2022-12-31T15:55:41.777Z,89.96
2022-12-31T15:58:19.398Z,89.75
2022-12-31T16:01:03.807Z,90.06
2022-12-31T16:03:34.191Z,89.20
2022-12-31T16:06:15.011Z,89.78
2022-12-31T16:08:47.969Z,89.20
2022-12-31T16:11:18.801Z,89.58
2022-12-31T16:13:52.784Z,89.19
2022-12-31T16:16:27.102Z,89.51
2022-12-31T16:18:57.994Z,88.98
2022-12-31T16:21:38.242Z,89.07
2022-12-31T16:24:28.500Z,90.09
2022-12-31T16:27:06.935Z,89.73
2022-12-31T16:29:42.266Z,89.29
2022-12-31T16:32:15.716Z,89.15
2022-12-31T16:34:46.208Z,89.68
2022-12-31T16:37:20.634Z,89.60
2022-12-31T16:39:56.594Z,89.70
2022-12-31T16:42:28.592Z,89.20
2022-12-31T16:45:18.543Z,90.04
2022-12-31T16:47:49.445Z,89.17
2022-12-31T16:50:23.166Z,89.36
2022-12-31T16:53:08.081Z,89.34
2022-12-31T16:55:39.102Z,89.58
2022-12-31T16:58:19.995Z,89.91
2022-12-31T17:00:51.380Z,89.39
2022-12-31T17:03:28.153Z,90.03
2022-12-31T17:06:12.671Z,90.03
2022-12-31T17:09:00.888Z,89.99
2022-12-31T17:11:42.303Z,89.66
2022-12-31T17:14:15.554Z,89.65
2022-12-31T17:17:07.073Z,90.30
2022-12-31T17:19:50.662Z,90.42
2022-12-31T17:22:36.956Z,89.71
2022-12-31T17:25:36.802Z,90.15
2022-12-31T17:28:08.386Z,89.04
2022-12-31T17:30:40.536Z,89.14
2022-12-31T17:33:22.686Z,89.51
2022-12-31T17:35:57.989Z,89.45
2022-12-31T17:38:32.192Z,88.86
2022-12-31T17:41:16.576Z,88.73
2022-12-31T17:43:53.764Z,89.00
2022-12-31T17:46:25.793Z,88.60
2022-12-31T17:49:03.138Z,88.47
2022-12-31T17:51:33.265Z,88.32
2022-12-31T17:54:12.454Z,87.85
2022-12-31T17:56:43.836Z,87.88
2022-12-31T17:59:29.885Z,88.11
2022-12-31T18:02:02.661Z,87.21
2022-12-31T18:04:33.084Z,87.61
2022-12-31T18:07:03.243Z,87.65
2022-12-31T18:09:33.353Z,87.51
2022-12-31T18:12:06.263Z,87.35
2022-12-31T18:14:36.378Z,87.52
2022-12-31T18:17:14.667Z,87.75
2022-12-31T18:22:35.593Z,86.96
2022-12-31T18:25:07.491Z,87.24
2022-12-31T18:27:38.315Z,87.68
2022-12-31T18:30:11.056Z,87.49
2022-12-31T18:32:41.880Z,87.37
2022-12-31T18:35:48.578Z,87.64
2022-12-31T18:38:13.653Z,87.50
2022-12-31T18:40:54.320Z,87.88
2022-12-31T18:43:25.333Z,87.40
2022-12-31T18:45:55.530Z,87.37
2022-12-31T18:48:25.680Z,87.38
2022-12-31T18:50:56.363Z,87.20
2022-12-31T18:53:26.619Z,86.82
2022-12-31T18:55:58.026Z,86.81
2022-12-31T18:58:28.188Z,86.77
2022-12-31T19:00:58.613Z,86.53
2022-12-31T19:03:29.141Z,86.89
2022-12-31T19:06:00.688Z,87.01
2022-12-31T19:08:32.000Z,87.24
2022-12-31T19:11:02.211Z,87.25
2022-12-31T19:13:32.369Z,86.98
2022-12-31T19:16:02.595Z,86.85
2022-12-31T19:18:32.840Z,86.80
2022-12-31T19:21:03.355Z,86.97
2022-12-31T19:23:33.458Z,87.39
2022-12-31T19:26:03.647Z,87.39
2022-12-31T19:28:33.787Z,87.34
2022-12-31T19:31:03.892Z,87.31
2022-12-31T19:33:34.028Z,87.87
2022-12-31T19:36:04.577Z,87.85
2022-12-31T19:38:34.758Z,87.53
2022-12-31T19:41:05.069Z,87.44
2022-12-31T19:43:35.223Z,87.99
2022-12-31T19:46:05.603Z,87.98
2022-12-31T19:48:36.291Z,88.38
2022-12-31T19:51:13.139Z,88.59
2022-12-31T19:53:43.446Z,88.03
2022-12-31T19:56:19.629Z,88.64
2022-12-31T19:58:49.767Z,89.01
2022-12-31T20:01:22.332Z,89.15
2022-12-31T20:03:52.679Z,89.18
2022-12-31T20:06:22.858Z,89.54
2022-12-31T20:08:53.015Z,89.62
2022-12-31T20:11:24.863Z,89.69
2022-12-31T20:13:55.108Z,89.83
2022-12-31T20:16:31.856Z,90.02
2022-12-31T20:19:02.172Z,90.46
2022-12-31T20:21:32.377Z,90.94
2022-12-31T20:24:02.692Z,91.36
2022-12-31T20:26:32.866Z,91.72
2022-12-31T20:29:03.075Z,91.40
2022-12-31T20:31:33.371Z,91.91
2022-12-31T20:34:03.661Z,91.87
2022-12-31T20:36:33.845Z,92.45
2022-12-31T20:39:05.017Z,92.59
2022-12-31T20:41:35.299Z,93.07
2022-12-31T20:44:06.055Z,93.32
2022-12-31T20:46:36.513Z,93.85
2022-12-31T20:49:07.211Z,94.54
2022-12-31T20:51:37.337Z,94.90
2022-12-31T20:54:10.297Z,94.96
2022-12-31T20:56:41.714Z,94.95
2022-12-31T20:59:12.030Z,95.74
2022-12-31T21:02:19.308Z,95.31
2022-12-31T21:04:32.801Z,94.84
2022-12-31T21:07:03.279Z,95.29
2022-12-31T21:09:33.995Z,96.08
2022-12-31T21:12:22.863Z,96.14
2022-12-31T21:14:53.005Z,96.09
2022-12-31T21:17:23.215Z,95.70
2022-12-31T21:19:53.453Z,95.58
2022-12-31T21:22:24.386Z,95.81
2022-12-31T21:24:54.564Z,95.54
2022-12-31T21:27:24.724Z,95.82
2022-12-31T21:30:17.534Z,95.01
2022-12-31T21:32:45.314Z,95.22
2022-12-31T21:35:42.394Z,95.34
2022-12-31T21:38:07.680Z,95.20
2022-12-31T21:40:37.938Z,94.87
2022-12-31T21:43:08.162Z,94.85
2022-12-31T21:45:38.490Z,94.40
2022-12-31T21:48:21.590Z,94.37
2022-12-31T21:50:54.474Z,94.46
2022-12-31T21:53:32.207Z,94.55
2022-12-31T21:56:11.792Z,94.55
2022-12-31T21:58:44.994Z,94.22
2022-12-31T22:01:39.716Z,94.39
2022-12-31T22:04:28.269Z,94.05
2022-12-31T22:07:00.243Z,94.20
2022-12-31T22:09:33.849Z,94.34
2022-12-31T22:12:04.643Z,94.56
2022-12-31T22:14:38.034Z,94.10
2022-12-31T22:17:08.679Z,94.47
2022-12-31T22:20:01.129Z,94.61
2022-12-31T22:22:29.559Z,94.64
2022-12-31T22:25:00.122Z,94.68
2022-12-31T22:27:31.138Z,94.79
2022-12-31T22:30:01.251Z,94.93
2022-12-31T22:32:32.476Z,94.69
2022-12-31T22:35:03.129Z,95.10
2022-12-31T22:37:56.449Z,95.25
2022-12-31T22:40:26.568Z,95.75
2022-12-31T22:42:56.785Z,95.22
2022-12-31T22:45:27.041Z,95.35
2022-12-31T22:47:57.230Z,95.55
2022-12-31T22:50:27.497Z,95.73
2022-12-31T22:52:57.651Z,95.32
2022-12-31T22:55:27.763Z,95.39
2022-12-31T22:57:57.995Z,95.24
2022-12-31T23:00:39.724Z,95.50
2022-12-31T23:03:09.915Z,95.41
2022-12-31T23:05:40.211Z,95.29
2022-12-31T23:08:20.546Z,95.45
2022-12-31T23:11:00.048Z,95.61
2022-12-31T23:13:55.068Z,95.44
2022-12-31T23:16:46.084Z,95.46
2022-12-31T23:19:35.135Z,95.01
2022-12-31T23:22:23.746Z,95.26
2022-12-31T23:24:54.512Z,95.51
2022-12-31T23:27:25.199Z,95.01
2022-12-31T23:29:57.188Z,95.01
2022-12-31T23:32:27.762Z,95.12
2022-12-31T23:34:58.443Z,94.85
2022-12-31T23:37:28.877Z,94.72
2022-12-31T23:39:58.995Z,94.87
2022-12-31T23:42:29.682Z,94.50
2022-12-31T23:44:59.839Z,94.60
2022-12-31T23:47:30.004Z,94.48
2022-12-31T23:50:00.139Z,94.39
2022-12-31T23:52:30.317Z,93.93
2022-12-31T23:55:00.537Z,94.48
2022-12-31T23:57:30.840Z,94.00
